CheckWX is a tool to help pilots better visualize weather data.  It is not intended as a substitute for an official pre-flight weather briefing.

09:28:23 UTC

KHEG METAR
Herlong Recreational Airport
Jacksonville, Florida, USA
Current

33 mins ago

KHEG 200855Z AUTO 02003KT 5SM BR OVC003 14/14 A3017 RMK AO2
Observed
Feb-20 @ 08:55 UTC
Wind
  • 020° at 3 KTS
Visibility
8,047 meters
Flight Rules
LIFR
Conditions
Mist
Cloud Levels
  • Overcast at 300' AGL
Temperature
14°C / 57°F
Dewpoint
14°C / 57°F
Humidity
100%
Altimeter
30.17" Hg
Pressure
1021.72 hPa
Previous

53 mins ago

KHEG 200835Z AUTO 02004KT 6SM BR OVC004 14/14 A3017 RMK AO2
Observed
Feb-20 @ 08:35 UTC
Wind
  • 020° at 4 KTS
Visibility
9,656 meters
Flight Rules
LIFR
Conditions
Mist
Cloud Levels
  • Overcast at 400' AGL
Temperature
14°C / 57°F
Dewpoint
14°C / 57°F
Humidity
100%
Altimeter
30.17" Hg
Pressure
1021.72 hPa
Previous

1 hour ago

KHEG 200815Z AUTO 36003KT 7SM OVC004 14/14 A3018 RMK AO2
Observed
Feb-20 @ 08:15 UTC
Wind
  • 360° at 3 KTS
Visibility
11,265 meters
Flight Rules
LIFR
Cloud Levels
  • Overcast at 400' AGL
Temperature
14°C / 57°F
Dewpoint
14°C / 57°F
Humidity
100%
Altimeter
30.18" Hg
Pressure
1022.02 hPa